createdAt,value
2019-03-21T00:01:33.928Z,6.90
2019-03-21T00:04:10.008Z,6.90
2019-03-21T00:06:40.293Z,7.07
2019-03-21T00:09:13.865Z,7.83
2019-03-21T00:12:02.373Z,7.33
2019-03-21T00:15:01.832Z,7.33
2019-03-21T00:17:37.734Z,7.30
2019-03-21T00:20:16.262Z,8.13
2019-03-21T00:22:46.579Z,7.60
2019-03-21T00:25:19.296Z,8.80
2019-03-21T00:27:49.595Z,7.77
2019-03-21T00:30:21.242Z,6.57
2019-03-21T00:32:50.699Z,7.93
2019-03-21T00:35:21.143Z,8.50
2019-03-21T00:37:51.511Z,8.53
2019-03-21T00:40:25.372Z,8.43
2019-03-21T00:42:55.733Z,8.80
2019-03-21T00:45:25.036Z,8.37
2019-03-21T00:47:55.443Z,7.87
2019-03-21T00:50:26.521Z,8.53
2019-03-21T00:52:58.873Z,7.63
2019-03-21T00:55:29.769Z,8.80
2019-03-21T00:58:00.332Z,8.77
2019-03-21T01:00:36.562Z,9.00
2019-03-21T01:03:08.265Z,9.17
2019-03-21T01:05:38.682Z,8.97
2019-03-21T01:08:09.025Z,8.03
2019-03-21T01:10:39.297Z,9.03
2019-03-21T01:13:09.828Z,8.60
2019-03-21T01:15:40.245Z,8.07
2019-03-21T01:18:10.668Z,9.23
2019-03-21T01:20:43.125Z,9.60
2019-03-21T01:23:13.581Z,8.27
2019-03-21T01:25:49.669Z,9.33
2019-03-21T01:28:20.010Z,8.40
2019-03-21T01:30:50.988Z,9.23
2019-03-21T01:33:21.369Z,9.97
2019-03-21T01:35:51.725Z,9.30
2019-03-21T01:38:22.390Z,8.77
2019-03-21T01:40:52.951Z,11.43
2019-03-21T01:43:23.376Z,10.07
2019-03-21T01:45:53.965Z,11.13
2019-03-21T01:48:25.560Z,10.17
2019-03-21T01:50:56.013Z,10.17
2019-03-21T01:53:26.441Z,11.90
2019-03-21T01:55:57.952Z,9.83
2019-03-21T01:58:33.581Z,10.97
2019-03-21T02:01:04.381Z,11.33
2019-03-21T02:03:36.238Z,11.73
2019-03-21T02:06:09.423Z,12.20
2019-03-21T02:08:39.813Z,11.83
2019-03-21T02:11:10.130Z,10.30
2019-03-21T02:13:40.596Z,9.73
2019-03-21T02:16:11.269Z,11.27
2019-03-21T02:18:41.836Z,11.20
2019-03-21T02:21:14.577Z,11.10
2019-03-21T02:23:45.384Z,10.87
2019-03-21T02:26:15.935Z,12.10
2019-03-21T02:28:46.752Z,11.80
2019-03-21T02:31:22.388Z,10.97
2019-03-21T02:33:51.736Z,10.57
2019-03-21T02:36:23.635Z,12.17
2019-03-21T02:38:53.987Z,12.10
2019-03-21T02:41:25.652Z,10.87
2019-03-21T02:43:56.347Z,11.93
2019-03-21T02:46:26.622Z,11.57
2019-03-21T02:48:57.207Z,12.60
2019-03-21T02:51:30.071Z,11.27
2019-03-21T02:54:00.483Z,11.73
2019-03-21T02:56:30.861Z,9.87
2019-03-21T02:59:01.262Z,11.80
2019-03-21T03:01:31.656Z,12.60
2019-03-21T03:04:02.083Z,12.40
2019-03-21T03:06:32.530Z,12.47
2019-03-21T03:09:04.069Z,12.70
2019-03-21T03:11:34.939Z,12.27
2019-03-21T03:14:05.161Z,12.57
2019-03-21T03:16:35.524Z,12.37
2019-03-21T03:19:05.922Z,12.30
2019-03-21T03:21:36.588Z,12.70
2019-03-21T03:24:07.934Z,12.20
2019-03-21T03:26:37.340Z,11.63
2019-03-21T03:29:07.611Z,12.57
2019-03-21T03:31:37.999Z,12.20
2019-03-21T03:34:08.400Z,13.03
2019-03-21T03:36:38.646Z,12.20
2019-03-21T03:39:09.900Z,12.77
2019-03-21T03:41:40.281Z,13.20
2019-03-21T03:44:10.684Z,12.50
2019-03-21T03:46:41.263Z,13.33
2019-03-21T03:49:11.716Z,12.60
2019-03-21T03:51:42.073Z,12.60
2019-03-21T03:54:12.449Z,12.73
2019-03-21T03:56:42.778Z,11.53
2019-03-21T03:59:12.438Z,12.67
2019-03-21T04:01:42.796Z,12.77
2019-03-21T04:04:14.458Z,10.87
2019-03-21T04:06:45.150Z,12.57
2019-03-21T04:09:14.592Z,10.00
2019-03-21T04:11:45.210Z,12.60
2019-03-21T04:14:15.743Z,10.80
2019-03-21T04:16:48.531Z,13.57
2019-03-21T04:19:18.768Z,12.93
2019-03-21T04:21:49.143Z,13.50
2019-03-21T04:24:19.615Z,14.07
2019-03-21T04:26:50.025Z,11.97
2019-03-21T04:29:21.439Z,13.50
2019-03-21T04:31:52.119Z,13.67
2019-03-21T04:34:22.396Z,13.73
2019-03-21T04:36:52.695Z,13.60
2019-03-21T04:39:23.183Z,12.57
2019-03-21T04:41:53.596Z,14.03
2019-03-21T04:44:22.998Z,13.73
2019-03-21T04:46:53.441Z,13.40
2019-03-21T04:49:25.406Z,12.23
2019-03-21T04:51:55.832Z,11.03
2019-03-21T04:54:28.028Z,12.70
2019-03-21T04:56:58.477Z,13.27
2019-03-21T04:59:31.087Z,12.50
2019-03-21T05:02:01.606Z,12.10
2019-03-21T05:04:31.927Z,13.50
2019-03-21T05:07:02.501Z,12.77
2019-03-21T05:09:35.523Z,13.30
2019-03-21T05:12:06.190Z,11.13
2019-03-21T05:14:35.656Z,12.77
2019-03-21T05:17:06.046Z,11.77
2019-03-21T05:19:36.373Z,11.63
2019-03-21T05:22:06.830Z,9.80
2019-03-21T05:24:37.176Z,11.30
2019-03-21T05:27:07.726Z,12.00
2019-03-21T05:29:38.102Z,9.57
2019-03-21T05:32:12.197Z,10.97
2019-03-21T05:34:49.668Z,10.80
2019-03-21T05:37:20.145Z,10.37
2019-03-21T05:39:52.295Z,10.67
2019-03-21T05:42:26.408Z,10.33
2019-03-21T05:44:56.831Z,10.77
2019-03-21T05:47:27.160Z,10.60
2019-03-21T05:49:57.455Z,10.17
2019-03-21T05:52:27.710Z,10.37
2019-03-21T05:54:57.077Z,10.07
2019-03-21T05:57:27.427Z,9.80
2019-03-21T05:59:56.844Z,8.20
2019-03-21T06:02:27.207Z,10.23
2019-03-21T06:04:56.668Z,9.40
2019-03-21T06:07:35.990Z,9.30
2019-03-21T06:10:06.694Z,9.93
2019-03-21T06:12:42.424Z,8.93
2019-03-21T06:15:13.801Z,9.80
2019-03-21T06:17:45.157Z,8.70
2019-03-21T06:20:43.551Z,9.23
2019-03-21T06:23:34.325Z,9.43
2019-03-21T06:26:32.018Z,10.20
2019-03-21T06:29:02.710Z,10.23
2019-03-21T06:31:33.100Z,9.53
2019-03-21T06:34:04.435Z,9.90
2019-03-21T06:36:34.743Z,9.97
2019-03-21T06:39:07.906Z,9.83
2019-03-21T06:41:40.461Z,9.27
2019-03-21T06:44:14.104Z,9.20
2019-03-21T06:46:49.415Z,9.17
2019-03-21T06:49:17.077Z,8.70
2019-03-21T06:51:47.578Z,9.60
2019-03-21T06:54:19.222Z,9.30
2019-03-21T06:56:49.580Z,8.90
2019-03-21T06:59:19.879Z,9.00
2019-03-21T07:01:50.131Z,9.27
2019-03-21T07:04:20.457Z,8.30
2019-03-21T07:06:50.663Z,8.83
2019-03-21T07:09:20.921Z,9.47
2019-03-21T07:11:51.318Z,8.80
2019-03-21T07:14:21.779Z,10.53
2019-03-21T07:17:00.052Z,8.50
2019-03-21T07:19:24.339Z,8.30
2019-03-21T07:21:54.608Z,7.60
2019-03-21T07:24:24.955Z,6.93
2019-03-21T07:26:55.245Z,5.67
2019-03-21T07:29:25.730Z,9.13
2019-03-21T07:31:56.063Z,8.43
2019-03-21T07:34:25.425Z,8.57
2019-03-21T07:36:55.721Z,8.70
2019-03-21T07:39:28.569Z,7.93
2019-03-21T07:41:58.045Z,7.37
2019-03-21T07:44:28.549Z,7.93
2019-03-21T07:46:58.810Z,7.70
2019-03-21T07:49:29.030Z,6.30
2019-03-21T07:51:59.258Z,4.63
2019-03-21T07:54:29.668Z,3.40
2019-03-21T07:57:00.237Z,5.80
2019-03-21T07:59:30.484Z,7.03
2019-03-21T08:02:00.651Z,6.43
2019-03-21T08:04:30.881Z,6.80
2019-03-21T08:07:01.100Z,5.83
2019-03-21T08:09:31.421Z,4.70
2019-03-21T08:12:02.199Z,6.67
2019-03-21T08:14:32.482Z,6.03
2019-03-21T08:17:02.709Z,5.37
2019-03-21T08:19:32.960Z,6.40
2019-03-21T08:22:03.163Z,5.00
2019-03-21T08:24:33.399Z,5.47
2019-03-21T08:27:03.667Z,5.90
2019-03-21T08:29:34.116Z,4.57
2019-03-21T08:32:04.422Z,7.33
2019-03-21T08:34:33.766Z,6.97
2019-03-21T08:37:04.051Z,6.70
2019-03-21T08:39:33.346Z,6.93
2019-03-21T08:42:03.686Z,8.10
2019-03-21T08:44:34.000Z,7.60
2019-03-21T08:47:04.631Z,7.80
2019-03-21T08:49:50.161Z,7.80
2019-03-21T08:52:27.439Z,7.10
2019-03-21T08:54:54.410Z,7.70
2019-03-21T08:57:29.099Z,7.37
2019-03-21T09:00:01.275Z,6.90
2019-03-21T09:02:31.785Z,6.00
2019-03-21T09:05:04.504Z,4.90
2019-03-21T09:07:34.958Z,5.47
2019-03-21T09:10:16.292Z,3.53
2019-03-21T09:12:51.478Z,7.87
2019-03-21T09:15:26.946Z,7.37
2019-03-21T09:18:04.216Z,6.83
2019-03-21T09:20:39.810Z,7.63
2019-03-21T09:23:10.253Z,7.63
2019-03-21T09:25:40.864Z,7.30
2019-03-21T09:28:13.910Z,7.47
2019-03-21T09:30:43.582Z,8.93
2019-03-21T09:33:17.409Z,7.07
2019-03-21T09:35:49.656Z,3.73
2019-03-21T09:38:22.296Z,8.20
2019-03-21T09:40:57.080Z,9.60
2019-03-21T09:43:32.916Z,7.00
2019-03-21T09:46:03.158Z,5.63
2019-03-21T09:48:33.401Z,9.03
2019-03-21T09:51:03.810Z,7.97
2019-03-21T09:53:33.998Z,8.63
2019-03-21T09:56:04.262Z,8.33
2019-03-21T09:58:35.524Z,8.03
2019-03-21T10:01:04.903Z,8.03
2019-03-21T10:03:35.142Z,7.30
2019-03-21T10:06:05.983Z,8.07
2019-03-21T10:08:36.280Z,7.47
2019-03-21T10:11:07.397Z,7.23
2019-03-21T10:13:38.094Z,6.60
2019-03-21T10:16:08.818Z,7.70
2019-03-21T10:18:39.197Z,6.00
2019-03-21T10:21:09.775Z,8.57
2019-03-21T10:23:40.435Z,7.43
2019-03-21T10:26:12.958Z,7.80
2019-03-21T10:28:43.606Z,8.20
2019-03-21T10:31:17.801Z,6.90
2019-03-21T10:33:48.454Z,8.00
2019-03-21T10:36:23.123Z,7.03
2019-03-21T10:38:53.291Z,7.57
2019-03-21T10:41:22.691Z,7.73
2019-03-21T10:43:54.477Z,7.37
2019-03-21T10:46:24.715Z,5.83
2019-03-21T10:48:55.068Z,8.10
2019-03-21T10:51:25.440Z,8.87
2019-03-21T10:53:55.734Z,8.43
2019-03-21T10:56:26.181Z,8.13
2019-03-21T10:58:56.526Z,8.00
2019-03-21T11:01:27.062Z,8.50
2019-03-21T11:03:57.411Z,8.43
2019-03-21T11:06:27.757Z,8.40
2019-03-21T11:08:58.229Z,7.30
2019-03-21T11:11:28.676Z,7.40
2019-03-21T11:13:59.047Z,7.60
2019-03-21T11:16:31.481Z,6.83
2019-03-21T11:19:01.660Z,7.47
2019-03-21T11:21:32.851Z,7.67
2019-03-21T11:24:05.607Z,7.33
2019-03-21T11:26:36.184Z,5.50
2019-03-21T11:29:06.629Z,6.90
2019-03-21T11:31:36.937Z,8.87
2019-03-21T11:34:09.361Z,8.07
2019-03-21T11:36:39.850Z,8.03
2019-03-21T11:39:10.262Z,8.63
2019-03-21T11:41:40.622Z,9.00
2019-03-21T11:44:11.061Z,8.83
2019-03-21T11:46:41.354Z,8.50
2019-03-21T11:49:11.730Z,8.27
2019-03-21T11:51:42.549Z,9.97
2019-03-21T11:54:12.885Z,8.97
2019-03-21T11:56:43.277Z,8.93
2019-03-21T11:59:14.019Z,8.23
2019-03-21T12:01:43.351Z,9.30
2019-03-21T12:04:14.235Z,8.77
2019-03-21T12:06:44.610Z,8.53
2019-03-21T12:09:15.093Z,8.20
2019-03-21T12:11:48.075Z,9.53
2019-03-21T12:14:18.789Z,9.00
2019-03-21T12:16:48.150Z,8.93
2019-03-21T12:19:23.605Z,4.20
2019-03-21T12:21:54.138Z,9.93
2019-03-21T12:24:26.640Z,9.23
2019-03-21T13:48:28.511Z,10.13
2019-03-21T13:50:59.034Z,9.90
2019-03-21T13:53:29.569Z,10.13
2019-03-21T13:56:00.035Z,10.37
2019-03-21T13:58:30.450Z,9.07
2019-03-21T14:01:01.445Z,10.33
2019-03-21T14:03:31.951Z,9.70
2019-03-21T14:06:02.429Z,10.63
2019-03-21T14:08:33.019Z,9.80
2019-03-21T14:11:03.521Z,10.23
2019-03-21T14:13:42.689Z,10.27
2019-03-21T14:16:13.206Z,10.50
2019-03-21T14:18:42.580Z,10.97
2019-03-21T14:21:12.917Z,10.07
2019-03-21T14:23:43.490Z,9.87
2019-03-21T14:26:14.135Z,8.20
2019-03-21T14:28:44.564Z,8.30
2019-03-21T14:31:14.764Z,8.40
2019-03-21T14:33:45.419Z,7.33
2019-03-21T14:36:15.720Z,7.83
2019-03-21T14:38:46.048Z,6.60
2019-03-21T14:41:16.498Z,8.10
2019-03-21T14:43:45.775Z,7.87
2019-03-21T14:46:16.267Z,8.67
2019-03-21T14:48:46.548Z,8.23
2019-03-21T14:51:16.964Z,7.83
2019-03-21T14:53:46.598Z,7.77
2019-03-21T14:56:16.900Z,8.33
2019-03-21T14:58:46.247Z,8.63
2019-03-21T15:01:24.158Z,8.17
2019-03-21T15:03:54.459Z,8.13
2019-03-21T15:06:24.893Z,8.90
2019-03-21T15:08:54.260Z,8.20
2019-03-21T15:11:24.798Z,9.53
2019-03-21T15:13:55.165Z,8.23
2019-03-21T15:16:26.668Z,10.30
2019-03-21T15:19:00.060Z,10.93
2019-03-21T15:21:33.108Z,11.30
2019-03-21T15:24:08.682Z,11.03
2019-03-21T15:26:43.899Z,10.27
2019-03-21T15:29:14.857Z,9.97
2019-03-21T15:31:45.276Z,10.20
2019-03-21T15:34:19.880Z,11.37
2019-03-21T15:36:49.410Z,11.47
2019-03-21T15:39:19.073Z,10.23
2019-03-21T15:41:48.884Z,10.17
2019-03-21T15:44:18.347Z,9.83
2019-03-21T15:46:49.093Z,9.60
2019-03-21T15:49:19.917Z,10.30
2019-03-21T15:51:49.607Z,10.23
2019-03-21T15:54:20.451Z,11.07
2019-03-21T15:56:50.107Z,10.53
2019-03-21T15:59:20.564Z,11.13
2019-03-21T16:02:37.039Z,10.13
2019-03-21T16:05:21.746Z,9.53
2019-03-21T16:07:51.221Z,11.10
2019-03-21T16:10:22.612Z,11.63
2019-03-21T16:12:53.945Z,9.90
2019-03-21T16:15:25.817Z,9.93
2019-03-21T16:17:58.799Z,10.20
2019-03-21T16:20:30.918Z,11.20
2019-03-21T16:23:01.413Z,11.03
2019-03-21T16:25:42.216Z,10.37
2019-03-21T16:28:14.644Z,10.90
2019-03-21T16:30:47.560Z,10.80
2019-03-21T16:33:18.475Z,11.27
2019-03-21T16:36:06.547Z,10.87
2019-03-21T16:38:38.231Z,11.13
2019-03-21T16:41:08.819Z,10.30
2019-03-21T16:43:39.864Z,10.27
2019-03-21T16:46:10.597Z,9.60
2019-03-21T16:48:41.563Z,10.93
2019-03-21T16:51:14.457Z,9.17
2019-03-21T16:53:46.550Z,10.17
2019-03-21T16:56:17.449Z,10.10
2019-03-21T16:58:48.098Z,9.90
2019-03-21T17:01:18.592Z,9.63
2019-03-21T17:03:51.805Z,8.70
2019-03-21T17:06:21.373Z,11.00
2019-03-21T17:08:51.965Z,9.73
2019-03-21T17:11:23.218Z,11.10
2019-03-21T17:13:53.989Z,10.80
2019-03-21T17:16:25.368Z,10.97
2019-03-21T17:18:55.344Z,10.67
2019-03-21T17:21:25.308Z,10.60
2019-03-21T17:23:55.347Z,10.70
2019-03-21T17:26:25.353Z,10.87
2019-03-21T17:28:54.855Z,10.50
2019-03-21T17:31:25.551Z,10.93
2019-03-21T17:33:58.816Z,10.67
2019-03-21T17:36:29.479Z,11.70
2019-03-21T17:38:59.894Z,11.90
2019-03-21T17:41:30.531Z,11.20
2019-03-21T17:44:01.065Z,11.07
2019-03-21T17:46:31.916Z,12.10
2019-03-21T17:49:04.098Z,11.60
2019-03-21T17:51:33.760Z,12.93
2019-03-21T17:54:05.883Z,10.00
2019-03-21T17:56:37.287Z,10.40
2019-03-21T17:59:07.732Z,9.50
2019-03-21T18:01:39.882Z,9.60
2019-03-21T18:04:10.712Z,9.87
2019-03-21T18:06:43.169Z,8.63
2019-03-21T18:09:13.695Z,9.40
2019-03-21T18:11:44.470Z,6.87
2019-03-21T18:14:14.893Z,8.80
2019-03-21T18:16:48.550Z,9.10
2019-03-21T18:19:22.234Z,9.60
2019-03-21T18:21:53.712Z,8.07
2019-03-21T18:24:24.191Z,9.40
2019-03-21T18:26:54.808Z,8.80
2019-03-21T18:29:25.428Z,9.50
2019-03-21T18:31:59.164Z,9.17
2019-03-21T18:34:29.043Z,9.07
2019-03-21T18:36:59.542Z,8.97
2019-03-21T18:39:34.215Z,9.60
2019-03-21T18:42:04.706Z,10.53
2019-03-21T18:44:40.191Z,9.03
2019-03-21T18:47:10.623Z,9.73
2019-03-21T18:49:41.123Z,9.20
2019-03-21T18:52:13.564Z,10.03
2019-03-21T18:54:43.848Z,10.60
2019-03-21T18:57:15.788Z,10.53
2019-03-21T18:59:46.437Z,11.13
2019-03-21T19:02:16.957Z,11.30
2019-03-21T19:04:50.083Z,10.83
2019-03-21T19:07:20.552Z,11.63
2019-03-21T19:09:54.460Z,11.27
2019-03-21T19:12:28.269Z,12.10
2019-03-21T19:14:58.722Z,9.90
2019-03-21T19:17:31.474Z,11.77
2019-03-21T19:20:02.087Z,12.47
2019-03-21T19:22:31.518Z,11.87
2019-03-21T19:25:01.962Z,12.27
2019-03-21T19:27:32.424Z,12.50
2019-03-21T19:30:02.019Z,11.17
2019-03-21T19:32:31.433Z,11.63
2019-03-21T19:35:04.919Z,10.97
2019-03-21T19:37:38.223Z,11.13
2019-03-21T19:40:09.420Z,11.00
2019-03-21T19:42:58.176Z,11.87
2019-03-21T19:45:28.762Z,11.13
2019-03-21T19:48:01.926Z,11.87
2019-03-21T19:50:32.459Z,11.70
2019-03-21T19:53:02.846Z,11.27
2019-03-21T19:55:33.182Z,11.57
2019-03-21T19:58:34.402Z,12.20
2019-03-21T20:01:04.249Z,12.70
2019-03-21T20:03:33.641Z,10.27
2019-03-21T20:06:03.986Z,11.97
2019-03-21T20:08:34.313Z,12.67
2019-03-21T20:11:05.031Z,12.30
2019-03-21T20:13:34.313Z,11.70
2019-03-21T20:16:05.255Z,11.00
2019-03-21T20:18:34.542Z,11.63
2019-03-21T20:21:05.505Z,11.83
2019-03-21T20:23:34.963Z,12.47
2019-03-21T20:26:05.366Z,11.60
2019-03-21T20:28:34.981Z,12.83
2019-03-21T20:31:06.088Z,12.53
2019-03-21T20:33:35.433Z,12.67
2019-03-21T20:36:06.204Z,13.03
2019-03-21T20:38:35.894Z,12.43
2019-03-21T20:41:05.413Z,12.73
2019-03-21T20:43:36.422Z,13.10
2019-03-21T20:46:07.771Z,12.73
2019-03-21T20:48:35.877Z,11.47
2019-03-21T20:51:05.566Z,11.40
2019-03-21T20:53:43.336Z,12.10
2019-03-21T20:56:16.334Z,11.67
2019-03-21T20:59:12.579Z,10.43
2019-03-21T21:01:45.939Z,11.77
2019-03-21T21:04:20.259Z,11.60
2019-03-21T21:07:09.614Z,11.63
2019-03-21T21:09:39.454Z,10.80
2019-03-21T21:12:09.175Z,12.00
2019-03-21T21:14:42.768Z,11.57
2019-03-21T21:17:19.502Z,10.90
2019-03-21T21:23:28.699Z,11.47
2019-03-21T21:26:05.486Z,11.73
2019-03-21T21:28:59.247Z,11.23
2019-03-21T21:31:30.031Z,12.47
2019-03-21T21:34:00.613Z,12.73
2019-03-21T21:36:31.032Z,12.20
2019-03-21T21:39:02.055Z,12.20
2019-03-21T21:41:32.410Z,12.97
2019-03-21T21:44:39.305Z,12.30
2019-03-21T21:47:13.470Z,13.17
2019-03-21T21:49:46.496Z,13.83
2019-03-21T21:52:23.596Z,13.93
2019-03-21T21:54:56.189Z,12.93
2019-03-21T21:57:46.085Z,14.13
2019-03-21T22:00:15.959Z,13.50
2019-03-21T22:02:50.611Z,13.00
2019-03-21T22:05:22.723Z,13.70
2019-03-21T22:07:54.341Z,13.07
2019-03-21T22:10:24.942Z,13.23
2019-03-21T22:12:58.956Z,13.73
2019-03-21T22:15:36.482Z,14.10
2019-03-21T22:18:09.477Z,14.50
2019-03-21T22:20:44.028Z,14.10
2019-03-21T22:23:15.771Z,14.40
2019-03-21T22:25:51.788Z,12.07
2019-03-21T22:28:24.782Z,13.40
2019-03-21T22:30:56.629Z,15.20
2019-03-21T22:33:27.264Z,14.43
2019-03-21T22:36:01.616Z,14.97
2019-03-21T22:38:33.405Z,13.10
2019-03-21T22:41:03.978Z,12.53
2019-03-21T22:43:36.898Z,14.60
2019-03-21T22:46:07.302Z,15.07
2019-03-21T22:48:37.750Z,13.67
2019-03-21T22:51:15.076Z,14.37
2019-03-21T22:53:47.395Z,15.67
2019-03-21T22:56:18.167Z,14.10
2019-03-21T22:58:48.786Z,13.33
2019-03-21T23:01:19.381Z,11.87
2019-03-21T23:03:58.035Z,13.97
2019-03-21T23:06:28.657Z,13.00
2019-03-21T23:08:59.365Z,13.93
2019-03-21T23:11:29.899Z,14.90
2019-03-21T23:14:02.709Z,14.90
2019-03-21T23:16:33.096Z,15.30
2019-03-21T23:19:03.398Z,14.80
2019-03-21T23:21:34.263Z,15.10
2019-03-21T23:24:05.985Z,15.07
2019-03-21T23:26:37.866Z,14.53
2019-03-21T23:29:07.442Z,12.47
2019-03-21T23:31:37.941Z,13.30
2019-03-21T23:34:07.319Z,15.20
2019-03-21T23:36:40.790Z,14.77
2019-03-21T23:39:11.223Z,14.13
2019-03-21T23:41:45.152Z,10.40
2019-03-21T23:44:15.620Z,14.20
2019-03-21T23:46:46.028Z,15.07
2019-03-21T23:49:16.444Z,14.53
2019-03-21T23:51:51.216Z,14.77
2019-03-21T23:54:19.081Z,10.97
2019-03-21T23:56:49.755Z,13.73
2019-03-21T23:59:20.256Z,11.43
